ACA875 LFPG-CYUL
Flight info
| Callsign | ACA875 |
|---|---|
| Flight time | N/A |
| Altitude | 38000 |
| Route | ELCOB UT300 SENLO DCT JSY DCT LIZAD DCT LESLU DCT MALOT/M084F390 DCT 54N020W 54N030W 54N040W 53N050W DCT RIKAL/N0494F400 DCT YAY DCT TAFFY DCT ATENE DCT KEBIG ROCKT3 |
| Aircraft | B788/H-SDE1E2E3FGHIJ2J3J4J5M1RWXY/LB1D1 |
Departure
| Time | 2026-05-04 22:05 |
|---|---|
| Airport | Charles de Gaulle International Airport (LFPG) |
Arrival
| Time | N/A |
|---|---|
| Airport | Montreal / Pierre Elliott Trudeau International Airport (CYUL) |
| Time | Latitude | Longitude | Altitude | Speed | Heading |
|---|---|---|---|---|---|
| 2026-05-04 21:33 | 49.00161 | 2.56228 | 361 ft | 0 kts | 343° |
| 2026-05-04 21:57 | 49.00139 | 2.56238 | 360 ft | 4 kts | 343° |
| 2026-05-04 21:57 | 49.00115 | 2.56248 | 366 ft | 4 kts | 338° |
| 2026-05-04 21:58 | 49.00098 | 2.56270 | 362 ft | 4 kts | 282° |
| 2026-05-04 21:58 | 49.00097 | 2.56309 | 362 ft | 2 kts | 265° |
| 2026-05-04 21:58 | 49.00097 | 2.56312 | 365 ft | 1 kts | 265° |
| 2026-05-04 22:00 | 49.00097 | 2.56308 | 365 ft | 2 kts | 265° |
| 2026-05-04 22:01 | 49.00094 | 2.56261 | 363 ft | 7 kts | 264° |
| 2026-05-04 22:01 | 49.00089 | 2.56164 | 366 ft | 11 kts | 266° |
| 2026-05-04 22:01 | 49.00083 | 2.56034 | 365 ft | 14 kts | 266° |
| 2026-05-04 22:01 | 49.00075 | 2.55877 | 366 ft | 16 kts | 266° |
| 2026-05-04 22:02 | 49.00067 | 2.55702 | 364 ft | 16 kts | 259° |
| 2026-05-04 22:02 | 49.00027 | 2.55571 | 363 ft | 10 kts | 237° |
| 2026-05-04 22:02 | 48.99991 | 2.55466 | 360 ft | 12 kts | 252° |
| 2026-05-04 22:02 | 48.99977 | 2.55336 | 367 ft | 13 kts | 264° |
| 2026-05-04 22:03 | 48.99971 | 2.55189 | 360 ft | 15 kts | 266° |
| 2026-05-04 22:03 | 48.99949 | 2.55035 | 367 ft | 15 kts | 234° |
| 2026-05-04 22:03 | 48.99864 | 2.55026 | 366 ft | 13 kts | 167° |
| 2026-05-04 22:03 | 48.99770 | 2.55067 | 364 ft | 15 kts | 163° |
| 2026-05-04 22:04 | 48.99676 | 2.55134 | 360 ft | 15 kts | 133° |
| 2026-05-04 22:04 | 48.99621 | 2.55255 | 362 ft | 14 kts | 120° |
| 2026-05-04 22:04 | 48.99580 | 2.55402 | 363 ft | 16 kts | 99° |
| 2026-05-04 22:04 | 48.99592 | 2.55686 | 358 ft | 52 kts | 85° |
| 2026-05-04 22:05 | 48.99640 | 2.56590 | 365 ft | 118 kts | 85° |
| 2026-05-04 22:05 | 48.99724 | 2.58141 | 366 ft | 175 kts | 85° |
| 2026-05-04 22:05 | 48.99790 | 2.60118 | 816 ft | 194 kts | 90° |
| 2026-05-04 22:05 | 48.99899 | 2.62178 | 1763 ft | 196 kts | 82° |
| 2026-05-04 22:06 | 49.00058 | 2.64302 | 2373 ft | 214 kts | 83° |
| 2026-05-04 22:06 | 49.00190 | 2.66742 | 2674 ft | 250 kts | 85° |
| 2026-05-04 22:06 | 49.00323 | 2.69460 | 3604 ft | 257 kts | 85° |
| 2026-05-04 22:06 | 49.00462 | 2.72173 | 4730 ft | 260 kts | 85° |
| 2026-05-04 22:07 | 49.00601 | 2.74825 | 5704 ft | 264 kts | 86° |
| 2026-05-04 22:07 | 49.00722 | 2.77644 | 6683 ft | 270 kts | 91° |
| 2026-05-04 22:07 | 49.00479 | 2.80504 | 7645 ft | 275 kts | 100° |
| 2026-05-04 22:07 | 49.00157 | 2.83409 | 8567 ft | 281 kts | 101° |
| 2026-05-04 22:08 | 48.99837 | 2.86375 | 9484 ft | 286 kts | 100° |
| 2026-05-04 22:08 | 48.99525 | 2.89414 | 10361 ft | 298 kts | 99° |
| 2026-05-04 22:08 | 48.99187 | 2.92684 | 10643 ft | 327 kts | 99° |
| 2026-05-04 22:08 | 48.98781 | 2.96231 | 11091 ft | 346 kts | 103° |
| 2026-05-04 22:09 | 48.97826 | 2.99561 | 12009 ft | 345 kts | 126° |
| 2026-05-04 22:09 | 48.96124 | 3.02117 | 12833 ft | 348 kts | 148° |
| 2026-05-04 22:09 | 48.93902 | 3.03531 | 13654 ft | 349 kts | 169° |
| 2026-05-04 22:09 | 48.91482 | 3.03572 | 14431 ft | 351 kts | 191° |
| 2026-05-04 22:10 | 48.89215 | 3.02222 | 15214 ft | 353 kts | 213° |
| 2026-05-04 22:10 | 48.87440 | 2.99647 | 15912 ft | 359 kts | 235° |